createdAt,value
2023-04-17T00:01:58.200Z,27.25
2023-04-17T00:04:26.753Z,25.02
2023-04-17T00:06:54.812Z,33.58
2023-04-17T00:09:22.835Z,31.17
2023-04-17T00:11:50.885Z,28.20
2023-04-17T00:14:18.860Z,28.15
2023-04-17T00:16:48.223Z,29.63
2023-04-17T00:19:16.523Z,31.25
2023-04-17T00:21:44.545Z,29.10
2023-04-17T00:24:13.164Z,28.80
2023-04-17T00:26:41.138Z,28.00
2023-04-17T00:29:09.174Z,31.55
2023-04-17T00:31:37.285Z,29.85
2023-04-17T00:34:06.845Z,24.80
2023-04-17T00:36:34.823Z,29.73
2023-04-17T00:39:02.822Z,29.27
2023-04-17T00:41:31.005Z,28.83
2023-04-17T00:43:59.132Z,29.92
2023-04-17T00:46:27.064Z,29.48
2023-04-17T00:48:55.702Z,29.35
2023-04-17T00:51:25.029Z,33.78
2023-04-17T00:53:53.640Z,29.35
2023-04-17T00:56:22.024Z,31.05
2023-04-17T00:58:51.032Z,32.05
2023-04-17T01:01:19.061Z,28.73
2023-04-17T01:08:45.378Z,27.73
2023-04-17T01:11:13.559Z,27.58
2023-04-17T01:13:47.864Z,30.23
2023-04-17T01:16:16.486Z,27.77
2023-04-17T01:18:44.579Z,27.85
2023-04-17T01:21:12.542Z,29.63
2023-04-17T01:23:46.305Z,27.35
2023-04-17T01:26:18.614Z,32.13
2023-04-17T01:28:51.691Z,29.13
2023-04-17T01:31:19.719Z,29.90
2023-04-17T01:33:48.057Z,28.90
2023-04-17T01:36:16.594Z,31.08
2023-04-17T01:38:44.631Z,37.75
2023-04-17T01:41:12.776Z,32.75
2023-04-17T01:43:44.739Z,30.98
2023-04-17T01:46:12.778Z,30.00
2023-04-17T01:48:40.890Z,30.70
2023-04-17T01:51:08.867Z,27.73
2023-04-17T01:53:39.140Z,31.13
2023-04-17T01:56:07.736Z,28.35
2023-04-17T01:58:35.741Z,26.05
2023-04-17T02:01:05.749Z,28.30
2023-04-17T02:03:34.106Z,30.27
2023-04-17T02:06:02.247Z,27.83
2023-04-17T02:08:30.430Z,28.58
2023-04-17T02:10:58.338Z,26.17
2023-04-17T02:13:26.320Z,27.33
2023-04-17T02:15:54.558Z,31.35
2023-04-17T02:20:51.579Z,25.45
2023-04-17T02:23:52.265Z,30.08
2023-04-17T02:26:39.956Z,27.02
2023-04-17T02:29:32.716Z,23.90
2023-04-17T02:32:00.921Z,27.83
2023-04-17T02:34:31.041Z,28.15
2023-04-17T02:36:59.182Z,28.63
2023-04-17T02:39:27.199Z,26.67
2023-04-17T02:41:56.000Z,28.00
2023-04-17T02:44:24.243Z,32.75
2023-04-17T02:46:52.374Z,29.48
2023-04-17T02:49:21.570Z,30.45
2023-04-17T02:51:51.139Z,30.77
2023-04-17T02:54:19.187Z,36.28
2023-04-17T02:56:47.396Z,28.15
2023-04-17T02:59:15.628Z,28.60
2023-04-17T03:01:45.581Z,28.67
2023-04-17T03:04:14.196Z,29.38
2023-04-17T03:06:42.612Z,34.63
2023-04-17T03:09:17.366Z,27.75
2023-04-17T03:11:45.809Z,32.88
2023-04-17T03:14:14.029Z,35.65
2023-04-17T03:16:42.647Z,37.45
2023-04-17T03:19:11.070Z,34.88
2023-04-17T03:21:39.550Z,35.50
2023-04-17T03:24:08.591Z,34.67
2023-04-17T03:26:38.184Z,41.25
2023-04-17T03:29:06.386Z,38.20
2023-04-17T03:31:34.456Z,36.85
2023-04-17T03:34:02.556Z,36.53
2023-04-17T03:36:30.994Z,35.88
2023-04-17T03:38:59.038Z,33.55
2023-04-17T03:41:27.260Z,39.20
2023-04-17T03:43:57.019Z,39.35
2023-04-17T03:46:25.216Z,38.75
2023-04-17T03:48:53.672Z,40.63
2023-04-17T03:51:21.838Z,43.78
2023-04-17T03:53:50.064Z,36.90
2023-04-17T03:56:21.030Z,42.90
2023-04-17T03:58:49.266Z,41.05
2023-04-17T04:03:47.226Z,40.55
2023-04-17T04:06:20.174Z,42.65
2023-04-17T04:08:48.550Z,49.45
2023-04-17T04:11:16.737Z,37.33
2023-04-17T04:13:44.900Z,37.80
2023-04-17T04:16:13.101Z,40.97
2023-04-17T04:18:43.419Z,43.83
2023-04-17T04:23:41.491Z,39.10
2023-04-17T04:26:09.716Z,39.67
2023-04-17T04:28:38.260Z,45.38
2023-04-17T04:31:06.999Z,48.20
2023-04-17T04:33:35.983Z,45.97
2023-04-17T04:36:05.856Z,40.60
2023-04-17T04:41:06.111Z,39.45
2023-04-17T04:48:31.119Z,48.80
2023-04-17T04:50:59.601Z,40.58
2023-04-17T04:53:29.527Z,41.03
2023-04-17T04:55:57.585Z,41.78
2023-04-17T04:58:25.756Z,41.95
2023-04-17T05:00:53.864Z,40.90
2023-04-17T05:03:25.134Z,39.17
2023-04-17T05:05:53.254Z,42.20
2023-04-17T05:08:21.410Z,41.17
2023-04-17T05:10:50.851Z,45.17
2023-04-17T05:13:18.989Z,46.90
2023-04-17T05:15:47.335Z,44.67
2023-04-17T05:18:15.365Z,40.80
2023-04-17T05:20:43.268Z,41.08
2023-04-17T05:23:11.171Z,43.45
2023-04-17T05:25:39.192Z,43.92
2023-04-17T05:28:08.627Z,44.45
2023-04-17T05:30:36.631Z,41.85
2023-04-17T05:33:04.794Z,44.58
2023-04-17T05:35:32.768Z,43.83
2023-04-17T05:38:00.676Z,43.15
2023-04-17T05:40:29.280Z,53.05
2023-04-17T05:42:57.067Z,44.05
2023-04-17T05:45:26.384Z,45.08
2023-04-17T05:47:54.394Z,48.17
2023-04-17T05:50:22.283Z,39.42
2023-04-17T05:52:50.341Z,37.53
2023-04-17T05:55:20.130Z,39.53
2023-04-17T05:57:48.136Z,41.03
2023-04-17T06:00:16.999Z,38.95
2023-04-17T06:02:46.822Z,36.67
2023-04-17T06:05:16.544Z,41.70
2023-04-17T06:07:44.793Z,41.10
2023-04-17T06:10:12.867Z,37.50
2023-04-17T06:12:41.135Z,36.83
2023-04-17T06:15:10.103Z,35.55
2023-04-17T06:17:38.652Z,39.88
2023-04-17T06:20:10.498Z,39.85
2023-04-17T06:22:38.728Z,30.48
2023-04-17T06:25:07.687Z,29.08
2023-04-17T06:27:36.980Z,31.40
2023-04-17T06:30:08.287Z,29.35
2023-04-17T06:32:45.486Z,24.70
2023-04-17T06:35:15.309Z,27.30
2023-04-17T06:37:43.771Z,26.10
2023-04-17T06:40:13.492Z,23.38
2023-04-17T06:42:45.762Z,22.27
2023-04-17T06:45:16.728Z,21.17
2023-04-17T06:47:47.583Z,21.58
2023-04-17T06:50:18.382Z,16.63
2023-04-17T06:52:46.543Z,22.52
2023-04-17T06:55:14.985Z,26.13
2023-04-17T06:57:43.288Z,24.17
2023-04-17T07:00:16.926Z,20.00
2023-04-17T07:02:45.242Z,21.80
2023-04-17T07:05:14.442Z,21.77
2023-04-17T07:07:44.363Z,29.50
2023-04-17T07:10:19.442Z,25.70
2023-04-17T07:12:50.151Z,25.00
2023-04-17T07:15:21.296Z,30.65
2023-04-17T07:17:49.494Z,30.73
2023-04-17T07:20:27.816Z,28.70
2023-04-17T07:22:59.153Z,28.95
2023-04-17T07:25:27.268Z,33.50
2023-04-17T07:27:56.910Z,27.58
2023-04-17T07:30:25.207Z,27.17
2023-04-17T07:32:53.583Z,24.95
2023-04-17T07:35:21.667Z,21.73
2023-04-17T07:37:50.131Z,23.30
2023-04-17T07:40:19.794Z,21.77
2023-04-17T07:42:47.765Z,24.58
2023-04-17T07:45:15.855Z,20.23
2023-04-17T07:47:43.993Z,20.77
2023-04-17T07:50:12.418Z,19.52
2023-04-17T07:52:40.414Z,20.05
2023-04-17T07:55:08.894Z,25.08
2023-04-17T07:57:42.911Z,23.90
2023-04-17T08:00:13.225Z,24.60
2023-04-17T08:02:42.055Z,24.98
2023-04-17T08:05:11.110Z,21.77
2023-04-17T08:07:40.121Z,25.15
2023-04-17T08:10:08.945Z,26.33
2023-04-17T08:12:38.301Z,22.33
2023-04-17T08:15:06.983Z,28.98
2023-04-17T08:17:35.306Z,25.65
2023-04-17T08:20:07.853Z,22.23
2023-04-17T08:25:09.502Z,24.00
2023-04-17T08:27:39.928Z,29.05
2023-04-17T08:30:12.573Z,27.77
2023-04-17T08:32:43.186Z,20.67
2023-04-17T08:35:12.516Z,23.95
2023-04-17T08:37:41.130Z,28.42
2023-04-17T08:40:12.100Z,21.13
2023-04-17T08:42:43.249Z,22.23
2023-04-17T08:45:12.535Z,16.00
2023-04-17T08:47:42.190Z,21.13
2023-04-17T08:50:11.870Z,15.63
2023-04-17T08:55:09.487Z,17.15
2023-04-17T08:57:53.863Z,20.88
2023-04-17T09:00:27.503Z,16.10
2023-04-17T09:02:56.942Z,18.33
2023-04-17T09:05:25.943Z,16.58
2023-04-17T09:08:11.426Z,19.55
2023-04-17T09:10:40.300Z,15.52
2023-04-17T09:13:08.666Z,14.02
2023-04-17T09:15:38.309Z,14.15
2023-04-17T09:18:06.501Z,15.40
2023-04-17T09:20:49.742Z,15.00
2023-04-17T09:23:17.658Z,17.48
2023-04-17T09:25:46.139Z,14.60
2023-04-17T09:28:16.107Z,19.42
2023-04-17T09:30:45.565Z,17.23
2023-04-17T09:33:13.561Z,15.93
2023-04-17T09:35:41.393Z,14.50
2023-04-17T09:38:09.353Z,14.00
2023-04-17T09:40:42.300Z,14.65
2023-04-17T09:43:11.465Z,12.60
2023-04-17T09:45:42.835Z,14.32
2023-04-17T09:48:13.976Z,12.60
2023-04-17T09:50:42.042Z,11.43
2023-04-17T09:53:09.983Z,11.50
2023-04-17T09:55:39.370Z,13.85
2023-04-17T09:58:08.420Z,11.15
2023-04-17T10:00:38.233Z,12.55
2023-04-17T10:03:08.146Z,12.32
2023-04-17T10:05:38.488Z,14.43
2023-04-17T10:08:07.573Z,19.60
2023-04-17T10:10:36.484Z,22.35
2023-04-17T10:13:07.951Z,19.13
2023-04-17T10:15:37.208Z,17.85
2023-04-17T10:18:20.668Z,18.55
2023-04-17T10:20:50.333Z,20.60
2023-04-17T10:23:32.396Z,23.35
2023-04-17T10:26:43.058Z,21.63
2023-04-17T10:29:12.659Z,16.48
2023-04-17T10:32:28.770Z,16.05
2023-04-17T10:34:58.174Z,16.08
2023-04-17T10:37:56.417Z,15.45
2023-04-17T10:40:27.201Z,17.48
2023-04-17T10:43:04.271Z,13.27
2023-04-17T10:45:54.920Z,12.25
2023-04-17T10:48:26.620Z,13.80
2023-04-17T10:50:54.859Z,12.48
2023-04-17T10:53:39.840Z,9.75
2023-04-17T10:56:10.151Z,11.75
2023-04-17T10:58:39.715Z,12.40
2023-04-17T11:01:12.266Z,12.10
2023-04-17T11:03:42.238Z,12.70
2023-04-17T11:06:10.890Z,11.50
2023-04-17T11:08:38.989Z,9.82
2023-04-17T11:11:12.961Z,9.35
2023-04-17T11:16:14.326Z,7.38
2023-04-17T11:18:58.020Z,7.95
2023-04-17T11:21:26.534Z,8.77
2023-04-17T11:23:54.713Z,9.38
2023-04-17T11:26:24.433Z,15.63
2023-04-17T11:28:52.307Z,8.90
2023-04-17T11:31:21.539Z,9.18
2023-04-17T11:33:50.282Z,10.15
2023-04-17T11:36:18.312Z,11.48
2023-04-17T11:38:48.569Z,9.02
2023-04-17T11:41:16.885Z,9.82
2023-04-17T11:43:46.902Z,9.07
2023-04-17T11:46:15.044Z,10.13
2023-04-17T11:48:43.358Z,9.30
2023-04-17T11:51:11.668Z,7.97
2023-04-17T11:53:47.533Z,9.00
2023-04-17T11:56:17.049Z,9.02
2023-04-17T11:58:53.880Z,8.57
2023-04-17T12:01:24.858Z,9.13
2023-04-17T12:03:53.809Z,8.20
2023-04-17T12:06:22.223Z,8.85
2023-04-17T12:08:51.803Z,7.65
2023-04-17T12:11:25.699Z,11.15
2023-04-17T12:13:55.887Z,12.68
2023-04-17T12:16:25.590Z,9.30
2023-04-17T12:18:54.106Z,9.73
2023-04-17T12:21:23.697Z,9.43
2023-04-17T12:23:51.890Z,8.13
2023-04-17T12:26:19.883Z,8.20
2023-04-17T12:28:56.003Z,9.48
2023-04-17T12:31:48.818Z,10.38
2023-04-17T12:34:25.958Z,10.63
2023-04-17T12:37:02.114Z,8.02
2023-04-17T12:39:30.502Z,11.15
2023-04-17T12:42:10.799Z,8.68
2023-04-17T12:44:46.557Z,10.70
2023-04-17T12:47:24.119Z,6.93
2023-04-17T12:49:57.879Z,9.27
2023-04-17T12:52:35.556Z,8.85
2023-04-17T12:55:20.950Z,8.95
2023-04-17T12:57:49.995Z,10.20
2023-04-17T13:00:30.459Z,7.88
2023-04-17T13:03:05.579Z,9.68
2023-04-17T13:05:56.160Z,10.30
2023-04-17T13:08:36.199Z,11.05
2023-04-17T13:11:04.951Z,12.38
2023-04-17T13:13:36.234Z,11.35
2023-04-17T13:16:06.998Z,10.35
2023-04-17T13:18:41.062Z,9.55
2023-04-17T13:21:21.743Z,11.38
2023-04-17T13:23:56.611Z,10.10
2023-04-17T13:26:25.445Z,8.60
2023-04-17T13:29:33.119Z,9.70
2023-04-17T13:35:40.528Z,11.43
2023-04-17T13:38:44.331Z,8.73
2023-04-17T13:41:16.283Z,8.48
2023-04-17T13:43:51.919Z,8.90
2023-04-17T13:46:32.545Z,8.45
2023-04-17T13:49:12.744Z,9.25
2023-04-17T13:51:43.111Z,8.73
2023-04-17T13:54:39.543Z,9.25
2023-04-17T13:57:17.457Z,6.20
2023-04-17T13:59:45.925Z,6.10
2023-04-17T14:02:14.346Z,9.05
2023-04-17T14:04:51.343Z,7.32
2023-04-17T14:07:42.242Z,8.07
2023-04-17T14:10:11.451Z,5.72
2023-04-17T14:12:58.793Z,6.85
2023-04-17T14:15:54.905Z,7.82
2023-04-17T14:18:27.868Z,12.13
2023-04-17T14:21:09.024Z,6.45
2023-04-17T14:23:49.000Z,4.38
2023-04-17T14:26:20.516Z,5.32
2023-04-17T14:28:48.646Z,5.95
2023-04-17T14:31:22.406Z,4.50
2023-04-17T14:34:33.507Z,5.60
2023-04-17T14:37:17.524Z,8.40
2023-04-17T14:40:03.083Z,6.25
2023-04-17T14:42:55.957Z,10.68
2023-04-17T14:45:37.810Z,7.50
2023-04-17T14:48:17.143Z,5.72
2023-04-17T14:50:53.742Z,6.72
2023-04-17T14:53:53.024Z,6.07
2023-04-17T14:56:56.109Z,5.70
2023-04-17T14:59:40.056Z,4.57
2023-04-17T15:05:39.215Z,5.53
2023-04-17T15:09:18.593Z,4.43
2023-04-17T15:11:41.086Z,4.03
2023-04-17T15:14:55.041Z,4.90
2023-04-17T15:17:47.364Z,3.20
2023-04-17T15:20:27.889Z,6.72
2023-04-17T15:23:18.418Z,6.10
2023-04-17T15:26:02.242Z,3.95
2023-04-17T15:28:47.191Z,3.90
2023-04-17T15:32:18.479Z,8.40
2023-04-17T15:35:02.593Z,3.42
2023-04-17T15:38:05.342Z,4.05
2023-04-17T15:40:43.588Z,6.38
2023-04-17T15:43:59.786Z,3.55
2023-04-17T15:46:56.128Z,4.47
2023-04-17T15:49:40.546Z,3.20
2023-04-17T15:52:13.378Z,3.60
2023-04-17T15:55:23.567Z,2.28
2023-04-17T15:58:13.545Z,2.53
2023-04-17T16:01:06.362Z,3.10
2023-04-17T16:03:50.375Z,2.28
2023-04-17T16:06:34.101Z,6.60
2023-04-17T16:09:29.898Z,3.83
2023-04-17T16:12:49.258Z,4.13
2023-04-17T16:15:40.293Z,3.97
2023-04-17T16:19:02.765Z,3.10
2023-04-17T16:21:44.407Z,3.80
2023-04-17T16:24:12.776Z,3.88
2023-04-17T16:27:02.940Z,5.90
2023-04-17T16:29:30.928Z,4.07
2023-04-17T16:31:59.700Z,4.60
2023-04-17T16:34:27.923Z,5.43
2023-04-17T16:36:57.197Z,6.70
2023-04-17T16:39:25.750Z,4.45
2023-04-17T16:41:53.760Z,5.80
2023-04-17T16:44:21.954Z,3.75
2023-04-17T16:49:20.923Z,4.20
2023-04-17T16:51:49.030Z,2.65
2023-04-17T16:54:19.411Z,2.53
2023-04-17T16:56:48.262Z,3.03
2023-04-17T16:59:16.961Z,3.08
2023-04-17T17:01:46.951Z,3.60
2023-04-17T17:04:14.991Z,4.13
2023-04-17T17:06:43.005Z,4.25
2023-04-17T17:09:11.081Z,4.32
2023-04-17T17:11:40.699Z,2.60
2023-04-17T17:14:08.619Z,4.07
2023-04-17T17:16:36.922Z,2.25
2023-04-17T17:19:05.215Z,3.40
2023-04-17T17:21:33.218Z,4.70
2023-04-17T17:24:02.104Z,4.05
2023-04-17T17:26:30.200Z,4.13
2023-04-17T17:28:59.819Z,4.63
2023-04-17T17:31:27.936Z,4.32
2023-04-17T17:33:57.786Z,2.72
2023-04-17T17:36:26.919Z,5.50
2023-04-17T17:38:55.916Z,3.08
2023-04-17T17:41:24.324Z,2.58
2023-04-17T17:46:55.552Z,3.42
2023-04-17T17:49:44.336Z,3.75
2023-04-17T17:52:39.869Z,3.78
2023-04-17T17:55:24.907Z,4.88
2023-04-17T17:58:27.146Z,4.75
2023-04-17T18:01:21.973Z,4.45
2023-04-17T18:04:09.413Z,4.30
2023-04-17T18:07:09.127Z,4.20
2023-04-17T18:15:59.720Z,4.88
2023-04-17T18:18:27.620Z,3.75
2023-04-17T18:20:57.068Z,4.10
2023-04-17T18:23:25.044Z,3.55
2023-04-17T18:25:58.660Z,4.38
2023-04-17T18:28:26.619Z,3.80
2023-04-17T18:30:54.732Z,3.88
2023-04-17T18:33:22.717Z,4.80
2023-04-17T18:35:50.942Z,3.97
2023-04-17T18:38:20.552Z,3.90
2023-04-17T18:40:48.394Z,3.55
2023-04-17T18:43:16.304Z,3.72
2023-04-17T18:45:44.279Z,4.70
2023-04-17T18:48:12.330Z,4.68
2023-04-17T18:50:40.384Z,4.53
2023-04-17T18:53:08.335Z,4.75
2023-04-17T18:55:38.175Z,3.55
2023-04-17T19:02:03.046Z,4.55
2023-04-17T19:05:15.364Z,6.00
2023-04-17T19:08:14.630Z,5.82
2023-04-17T19:10:58.754Z,5.20
2023-04-17T19:13:58.978Z,4.05
2023-04-17T19:24:59.159Z,6.90
2023-04-17T19:36:21.249Z,6.00
2023-04-17T19:46:29.753Z,7.07
2023-04-17T19:49:56.321Z,5.57
2023-04-17T19:52:47.392Z,6.60
2023-04-17T19:56:13.988Z,7.13
2023-04-17T19:58:44.179Z,5.03
2023-04-17T20:01:12.419Z,5.97
2023-04-17T20:03:45.354Z,5.45
2023-04-17T20:06:14.132Z,7.90
2023-04-17T20:08:42.381Z,6.60
2023-04-17T20:11:12.217Z,4.82
2023-04-17T20:13:40.638Z,5.43
2023-04-17T20:16:10.379Z,6.65
2023-04-17T20:18:38.339Z,7.75
2023-04-17T20:21:15.702Z,6.03
2023-04-17T20:23:50.320Z,5.50
2023-04-17T20:26:31.953Z,5.47
2023-04-17T20:29:20.305Z,6.95
2023-04-17T20:31:55.804Z,6.43
2023-04-17T20:34:43.118Z,8.07
2023-04-17T20:37:23.641Z,5.72
2023-04-17T20:40:17.167Z,7.45
2023-04-17T20:43:10.624Z,6.95
2023-04-17T20:45:53.843Z,6.82
2023-04-17T20:48:42.068Z,7.57
2023-04-17T20:51:23.646Z,8.65
2023-04-17T20:54:08.708Z,9.15
2023-04-17T20:57:07.256Z,8.00
2023-04-17T20:59:48.351Z,8.10
2023-04-17T21:02:42.261Z,7.10
2023-04-17T21:05:41.301Z,10.13
2023-04-17T21:08:13.707Z,7.07
2023-04-17T21:10:46.620Z,10.38
2023-04-17T21:13:28.578Z,9.10
2023-04-17T21:16:14.958Z,9.02
2023-04-17T21:18:49.067Z,7.97
2023-04-17T21:21:47.701Z,10.38
2023-04-17T21:24:28.060Z,8.27
2023-04-17T21:27:05.857Z,8.40
2023-04-17T21:29:43.812Z,6.85
2023-04-17T21:32:21.565Z,12.43
2023-04-17T21:38:03.977Z,9.68
2023-04-17T21:43:37.109Z,11.95
2023-04-17T21:46:20.491Z,13.32
2023-04-17T21:49:05.812Z,7.63
2023-04-17T21:51:58.879Z,7.90
2023-04-17T21:54:31.105Z,10.20
2023-04-17T21:57:22.187Z,8.40
2023-04-17T22:00:05.640Z,12.73
2023-04-17T22:02:44.724Z,8.15
2023-04-17T22:05:23.003Z,7.47
2023-04-17T22:08:01.905Z,9.45
2023-04-17T22:10:40.784Z,14.02
2023-04-17T22:13:35.661Z,14.98
2023-04-17T22:16:19.560Z,9.85
2023-04-17T22:19:16.959Z,10.45
2023-04-17T22:21:51.668Z,8.05
2023-04-17T22:24:32.184Z,8.00
2023-04-17T22:27:20.382Z,8.23
2023-04-17T22:29:59.555Z,7.35
2023-04-17T22:32:36.621Z,7.72
2023-04-17T22:35:12.792Z,9.57
2023-04-17T22:37:43.837Z,8.10
2023-04-17T22:40:13.081Z,11.00
2023-04-17T22:42:43.225Z,11.02
2023-04-17T22:45:11.529Z,10.07
2023-04-17T22:47:39.602Z,9.88
2023-04-17T22:50:10.675Z,9.88
2023-04-17T22:52:38.926Z,11.05
2023-04-17T22:55:07.933Z,10.27
2023-04-17T22:57:36.217Z,18.67
2023-04-17T23:00:08.827Z,12.40
2023-04-17T23:02:37.204Z,9.02
2023-04-17T23:05:06.104Z,10.25
2023-04-17T23:07:34.046Z,12.30
2023-04-17T23:10:01.973Z,11.05
2023-04-17T23:12:29.964Z,11.23
2023-04-17T23:14:59.110Z,10.00
2023-04-17T23:17:28.446Z,12.00
2023-04-17T23:19:56.885Z,9.98
2023-04-17T23:22:24.844Z,12.50
2023-04-17T23:24:52.852Z,11.88
2023-04-17T23:27:21.295Z,9.95
2023-04-17T23:29:49.160Z,10.98
2023-04-17T23:32:17.143Z,12.75
2023-04-17T23:34:46.586Z,12.57
2023-04-17T23:37:14.690Z,14.23
2023-04-17T23:39:42.860Z,10.05
2023-04-17T23:42:10.883Z,14.20
2023-04-17T23:44:38.887Z,13.85
2023-04-17T23:47:06.975Z,13.32
2023-04-17T23:49:36.347Z,13.27
2023-04-17T23:52:06.038Z,10.48
2023-04-17T23:54:34.011Z,11.20
2023-04-17T23:57:02.343Z,11.90
2023-04-17T23:59:30.198Z,14.23
